Airfield :
LOGIN :

Register | Disclaimer

   EN    FR    IT 

 










Legend :    VFR   Marginal VFR   IFR   Intensive IFR   Very Intensive IFR
Visi :
Ceiling :
>= 8 km
>= 3000ft
5 to 8 km
1000 to 3000 ft
1500m to 5 km
500 to 1000 ft
800 to 1500m
200 to 500 ft
< 800m
< 200 ft
Symbols :   Thunderstorms  Fog  Heavy snow  Heavy precipitations  Wind > 20 kt
SIGMETs :     Misc.  Thunderstorms  Icing  Turbulence  Mountain Waves  Volcanic Ashes






- Airport Elevation : 1260 ft
- IATA code : LDE


LFBT - Tarbes / Ossun

CURRENT METAR :
  • 211900Z AUTO VRB04KT 9999 -RA FEW010/// BKN016/// BKN041/// ///CB 17/15 Q1019 TEMPO 30015G30KT 4000 SHRA BKN010 SCT030CB

EXPIRED METARs :
  • 211830Z AUTO 23006KT 9999 -RA FEW009/// BKN039/// OVC045/// ///TCU 17/15 Q1018 TEMPO 30015G30KT 4000 SHRA BKN010 SCT030CB
  • 211800Z AUTO 25008KT 220V280 9999 BKN010/// BKN016/// BKN024/// ///TCU 17/15 Q1018 TEMPO 30015G30KT 2000 TSRA BKN006 BKN020CB
  • 211730Z AUTO 27007KT 240V300 9999 BKN015/// BKN040/// OVC049/// ///TCU 18/15 Q1018 TEMPO 30015G30KT 2000 TSRA BKN006 BKN020CB
  • 211700Z AUTO 26009KT 9999 FEW016/// BKN035/// BKN044/// ///CB 18/15 Q1018 TEMPO 30015G30KT 2000 TSRA BKN006 BKN020CB
  • 211630Z AUTO 25008KT 9999 BKN017/// BKN033/// BKN049/// ///TCU 18/15 Q1018 TEMPO 30015G30KT 2000 TSRA BKN006 BKN020CB

TAF TAF LFBT
Valid from the 21 at 18:00 until the 22 at 18:00 UTC


211700Z 2118/2218 26006KT 9999 BKN030
PROB40
TEMPO 2118/2201 4000 SHRA BKN010 SCT030CB
PROB40
TEMPO 2118/2120 30015G30KT 2000 TSRA BKN006 BKN020CB
TEMPO 2201/2209 BKN010



MET'MAP, your aeronautical weather chart ! - Copyright ORBIFLY December 2007 - Disclaimer

ORBIFLY MET'MAP TEAM :

Programming & Development : Alexandra Zaïnal
Concept & original design : Baudouin d'Aumeries
Assistance for programming : Marc-Olivier Méhu
Technical & hardware support : Manuel Goepfert

Contact : metmap@orbifly.com




SOURCES & CREDITS :

   NOAA